createdAt,value
2022-09-05T00:00:17.947Z,101885.66
2022-09-05T00:03:22.842Z,101877.78
2022-09-05T00:06:03.168Z,101876.94
2022-09-05T00:09:09.082Z,101871.69
2022-09-05T00:11:58.385Z,101869.94
2022-09-05T00:15:16.997Z,101877.88
2022-09-05T00:22:14.434Z,101872.66
2022-09-05T00:24:33.149Z,101875.31
2022-09-05T00:24:54.698Z,101878.03
2022-09-05T00:27:47.279Z,101883.34
2022-09-05T00:31:51.769Z,101882.50
2022-09-05T00:33:16.986Z,101878.91
2022-09-05T00:36:11.178Z,101876.25
2022-09-05T00:38:42.950Z,101873.59
2022-09-05T00:41:14.373Z,101875.28
2022-09-05T00:43:45.290Z,101870.88
2022-09-05T00:46:18.162Z,101861.22
2022-09-05T00:49:11.563Z,101861.13
2022-09-05T00:52:20.718Z,101864.56
2022-09-05T00:55:07.266Z,101859.34
2022-09-05T00:57:59.284Z,101857.59
2022-09-05T01:00:46.877Z,101862.00
2022-09-05T01:03:29.562Z,101872.50
2022-09-05T01:06:24.798Z,101865.63
2022-09-05T01:08:55.892Z,101869.19
2022-09-05T01:11:43.901Z,101864.00
2022-09-05T01:14:39.059Z,101863.19
2022-09-05T01:17:16.363Z,101859.78
2022-09-05T01:20:04.686Z,101865.97
2022-09-05T01:23:27.520Z,101862.53
2022-09-05T01:26:24.428Z,101865.28
2022-09-05T01:29:16.939Z,101867.16
2022-09-05T01:32:20.917Z,101867.22
2022-09-05T01:34:51.429Z,101859.31
2022-09-05T01:37:44.938Z,101858.38
2022-09-05T01:40:28.688Z,101862.72
2022-09-05T01:43:20.566Z,101865.34
2022-09-05T01:45:53.584Z,101865.47
2022-09-05T01:48:37.922Z,101858.53
2022-09-05T01:51:42.136Z,101854.25
2022-09-05T01:54:38.417Z,101853.38
2022-09-05T01:57:20.886Z,101853.34
2022-09-05T02:00:09.916Z,101854.13
2022-09-05T02:02:57.528Z,101856.69
2022-09-05T02:05:48.503Z,101861.19
2022-09-05T02:08:17.118Z,101858.63
2022-09-05T02:11:05.647Z,101859.44
2022-09-05T02:14:05.889Z,101859.47
2022-09-05T02:16:39.349Z,101865.56
2022-09-05T02:19:29.357Z,101860.31
2022-09-05T02:22:11.187Z,101866.44
2022-09-05T02:24:43.517Z,101856.81
2022-09-05T02:27:46.120Z,101860.41
2022-09-05T02:30:13.612Z,101867.38
2022-09-05T02:33:06.722Z,101860.31
2022-09-05T02:35:46.402Z,101862.03
2022-09-05T02:42:43.496Z,101858.44
2022-09-05T02:45:18.371Z,101859.25
2022-09-05T02:45:19.430Z,101864.41
2022-09-05T02:47:27.899Z,101861.91
2022-09-05T02:55:58.764Z,101864.53
2022-09-05T02:57:35.756Z,101867.22
2022-09-05T02:57:38.336Z,101862.84
2022-09-05T02:59:35.939Z,101850.63
2022-09-05T03:02:28.644Z,101860.19
2022-09-05T03:05:06.829Z,101863.63
2022-09-05T03:07:52.800Z,101874.16
2022-09-05T03:10:54.623Z,101861.94
2022-09-05T03:13:56.306Z,101869.88
2022-09-05T03:16:48.346Z,101866.47
2022-09-05T03:19:50.861Z,101867.50
2022-09-05T03:23:10.087Z,101867.56
2022-09-05T03:26:09.603Z,101859.78
2022-09-05T03:28:58.695Z,101865.06
2022-09-05T03:31:50.316Z,101869.47
2022-09-05T03:34:46.595Z,101867.69
2022-09-05T03:37:28.447Z,101868.66
2022-09-05T03:40:15.879Z,101870.44
2022-09-05T03:43:21.844Z,101873.97
2022-09-05T03:46:29.151Z,101868.78
2022-09-05T03:49:25.868Z,101870.63
2022-09-05T03:57:18.470Z,101864.56
2022-09-05T03:57:20.205Z,101859.28
2022-09-05T03:58:57.128Z,101864.63
2022-09-05T04:04:20.303Z,101867.31
2022-09-05T04:08:20.702Z,101866.44
2022-09-05T04:08:24.961Z,101876.09
2022-09-05T04:11:05.527Z,101871.78
2022-09-05T04:13:39.587Z,101872.59
2022-09-05T04:16:45.319Z,101881.44
2022-09-05T04:19:25.554Z,101874.44
2022-09-05T04:22:03.916Z,101875.38
2022-09-05T04:25:02.953Z,101869.34
2022-09-05T04:27:46.726Z,101878.94
2022-09-05T04:30:38.829Z,101875.41
2022-09-05T04:33:36.361Z,101871.00
2022-09-05T04:36:18.769Z,101870.06
2022-09-05T04:38:47.051Z,101876.09
2022-09-05T04:41:19.218Z,101878.69
2022-09-05T04:44:29.695Z,101887.41
2022-09-05T04:47:03.446Z,101880.41
2022-09-05T04:49:38.793Z,101883.03
2022-09-05T04:52:20.868Z,101882.16
2022-09-05T04:55:11.049Z,101871.66
2022-09-05T04:58:11.969Z,101881.25
2022-09-05T05:05:58.759Z,101884.75
2022-09-05T05:06:09.767Z,101897.84
2022-09-05T05:06:45.547Z,101890.81
2022-09-05T05:09:31.780Z,101889.84
2022-09-05T05:18:07.466Z,101895.84
2022-09-05T05:18:14.370Z,101896.78
2022-09-05T05:20:42.018Z,101899.31
2022-09-05T05:23:21.446Z,101893.16
2022-09-05T05:25:56.010Z,101887.91
2022-09-05T05:28:29.227Z,101890.47
2022-09-05T05:31:01.640Z,101889.56
2022-09-05T05:33:34.928Z,101888.66
2022-09-05T05:36:07.975Z,101891.16
2022-09-05T05:38:35.432Z,101900.75
2022-09-05T05:41:20.084Z,101891.06
2022-09-05T05:43:50.340Z,101891.97
2022-09-05T05:46:30.189Z,101886.69
2022-09-05T05:49:14.898Z,101894.41
2022-09-05T05:52:05.383Z,101894.28
2022-09-05T05:54:45.650Z,101881.97
2022-09-05T05:57:45.906Z,101896.63
2022-09-05T06:00:36.369Z,101883.34
2022-09-05T06:03:37.748Z,101890.09
2022-09-05T06:06:28.975Z,101904.75
2022-09-05T06:14:27.513Z,101904.50
2022-09-05T06:15:01.460Z,101900.66
2022-09-05T06:16:07.658Z,101907.22
2022-09-05T06:18:45.709Z,101906.09
2022-09-05T06:22:10.170Z,101908.53
2022-09-05T06:25:11.069Z,101918.78
2022-09-05T06:28:17.696Z,101910.59
2022-09-05T06:31:30.296Z,101910.00
2022-09-05T06:34:02.068Z,101916.56
2022-09-05T06:36:57.547Z,101924.94
2022-09-05T06:39:53.452Z,101926.25
2022-09-05T06:42:28.564Z,101923.28
2022-09-05T06:45:42.493Z,101923.00
2022-09-05T06:48:44.688Z,101924.53
2022-09-05T06:51:18.225Z,101929.59
2022-09-05T06:54:04.314Z,101920.59
2022-09-05T06:56:41.046Z,101923.50
2022-09-05T06:59:34.229Z,101921.47
2022-09-05T07:02:59.342Z,101928.09
2022-09-05T07:05:44.931Z,101907.75
2022-09-05T07:08:35.644Z,101910.13
2022-09-05T07:11:11.911Z,101915.94
2022-09-05T07:13:50.930Z,101920.00
2022-09-05T07:16:26.550Z,101917.97
2022-09-05T07:19:25.617Z,101920.78
2022-09-05T07:22:29.572Z,101925.06
2022-09-05T07:24:58.288Z,101909.78
2022-09-05T07:28:29.999Z,101917.44
2022-09-05T07:31:07.425Z,101914.72
2022-09-05T07:33:39.654Z,101913.84
2022-09-05T07:36:12.388Z,101922.66
2022-09-05T07:38:55.070Z,101919.97
2022-09-05T07:41:34.175Z,101922.91
2022-09-05T07:44:28.660Z,101922.19
2022-09-05T07:47:07.090Z,101932.69
2022-09-05T07:49:42.233Z,101934.91
2022-09-05T07:56:52.572Z,101936.94
2022-09-05T07:56:54.147Z,101930.94
2022-09-05T07:58:28.078Z,101940.25
2022-09-05T08:00:58.776Z,101948.06
2022-09-05T08:03:29.224Z,101944.81
2022-09-05T08:06:00.571Z,101951.03
2022-09-05T08:08:34.953Z,101942.03
2022-09-05T08:11:23.381Z,101948.31
2022-09-05T08:14:43.560Z,101939.69
2022-09-05T08:16:54.457Z,101947.19
2022-09-05T08:20:02.496Z,101943.91
2022-09-05T08:22:54.338Z,101945.22
2022-09-05T08:25:38.928Z,101948.03
2022-09-05T08:28:39.635Z,101946.19
2022-09-05T08:31:23.962Z,101946.41
2022-09-05T08:33:57.194Z,101938.47
2022-09-05T08:36:43.027Z,101936.72
2022-09-05T08:39:13.333Z,101928.59
2022-09-05T08:41:56.135Z,101933.06
2022-09-05T08:46:47.656Z,101929.47
2022-09-05T08:47:45.614Z,101927.81
2022-09-05T08:50:26.889Z,101924.03
2022-09-05T08:53:45.706Z,101924.84
2022-09-05T08:56:20.434Z,101923.44
2022-09-05T08:58:54.080Z,101934.19
2022-09-05T09:02:45.584Z,101927.81
2022-09-05T09:05:03.149Z,101922.56
2022-09-05T09:07:50.624Z,101920.84
2022-09-05T09:10:40.822Z,101922.03
2022-09-05T09:13:21.676Z,101924.09
2022-09-05T09:16:06.512Z,101921.34
2022-09-05T09:18:49.373Z,101918.09
2022-09-05T09:21:39.789Z,101914.22
2022-09-05T09:24:22.404Z,101913.94
2022-09-05T09:26:59.879Z,101910.94
2022-09-05T09:29:34.351Z,101908.31
2022-09-05T09:32:19.285Z,101906.94
2022-09-05T09:34:58.800Z,101896.53
2022-09-05T09:37:50.877Z,101882.22
2022-09-05T09:41:00.758Z,101888.41
2022-09-05T09:43:53.132Z,101888.31
2022-09-05T09:46:43.474Z,101882.25
2022-09-05T09:49:32.477Z,101884.28
2022-09-05T09:52:20.653Z,101873.06
2022-09-05T09:55:47.153Z,101876.59
2022-09-05T09:58:33.402Z,101876.03
2022-09-05T10:01:00.869Z,101876.97
2022-09-05T10:10:33.031Z,101871.34
2022-09-05T10:10:49.221Z,101866.72
2022-09-05T10:11:24.609Z,101867.47
2022-09-05T10:13:43.081Z,101866.69
2022-09-05T10:16:22.854Z,101869.66
2022-09-05T10:19:12.741Z,101874.28
2022-09-05T10:25:19.186Z,101866.47
2022-09-05T10:28:02.289Z,101857.13
2022-09-05T10:31:09.590Z,101858.28
2022-09-05T10:35:18.209Z,101856.69
2022-09-05T10:36:32.064Z,101862.44
2022-09-05T10:39:16.302Z,101858.56
2022-09-05T10:41:49.902Z,101862.84
2022-09-05T10:44:33.935Z,101847.06
2022-09-05T10:47:13.583Z,101849.94
2022-09-05T10:49:49.200Z,101848.00
2022-09-05T10:52:22.805Z,101852.84
2022-09-05T10:55:32.149Z,101846.06
2022-09-05T10:58:07.452Z,101839.56
2022-09-05T11:02:23.801Z,101833.72
2022-09-05T11:03:50.307Z,101829.44
2022-09-05T11:06:24.672Z,101838.75
2022-09-05T11:09:16.501Z,101834.41
2022-09-05T11:11:48.201Z,101831.44
2022-09-05T11:14:35.302Z,101823.53
2022-09-05T11:17:16.606Z,101830.22
2022-09-05T11:19:51.369Z,101831.38
2022-09-05T11:22:23.863Z,101837.56
2022-09-05T11:24:51.844Z,101822.09
2022-09-05T11:27:33.760Z,101828.03
2022-09-05T11:30:27.311Z,101824.63
2022-09-05T11:39:21.915Z,101827.19
2022-09-05T11:40:02.932Z,101820.88
2022-09-05T11:40:43.599Z,101816.28
2022-09-05T11:43:48.067Z,101815.38
2022-09-05T11:46:34.215Z,101825.41
2022-09-05T11:49:13.649Z,101822.59
2022-09-05T11:52:35.123Z,101821.72
2022-09-05T11:55:21.791Z,101815.84
2022-09-05T11:58:43.777Z,101804.50
2022-09-05T12:01:41.167Z,101806.78
2022-09-05T12:04:38.937Z,101802.59
2022-09-05T12:07:31.577Z,101807.75
2022-09-05T12:10:47.951Z,101804.91
2022-09-05T12:13:53.137Z,101808.50
2022-09-05T12:16:42.265Z,101814.25
2022-09-05T12:19:34.498Z,101803.19
2022-09-05T12:22:18.626Z,101809.22
2022-09-05T12:25:27.256Z,101800.19
2022-09-05T12:29:09.717Z,101810.50
2022-09-05T12:32:36.477Z,101805.78
2022-09-05T12:36:10.577Z,101802.53
2022-09-05T12:40:45.151Z,101802.91
2022-09-05T12:40:58.370Z,101788.91
2022-09-05T12:44:22.921Z,101792.38
2022-09-05T12:45:44.068Z,101788.13
2022-09-05T12:48:41.317Z,101782.72
2022-09-05T12:51:45.086Z,101785.59
2022-09-05T12:54:31.192Z,101792.34
2022-09-05T13:02:55.129Z,101798.06
2022-09-05T13:03:13.207Z,101790.69
2022-09-05T13:03:27.837Z,101791.53
2022-09-05T13:06:02.121Z,101788.53
2022-09-05T13:08:44.122Z,101780.94
2022-09-05T13:14:09.028Z,101788.88
2022-09-05T13:14:52.311Z,101787.06
2022-09-05T13:17:00.015Z,101789.75
2022-09-05T13:19:51.203Z,101785.81
2022-09-05T13:22:23.764Z,101776.47
2022-09-05T13:25:11.236Z,101781.97
2022-09-05T13:27:46.617Z,101785.22
2022-09-05T13:32:49.970Z,101780.91
2022-09-05T13:38:07.303Z,101792.34
2022-09-05T13:38:10.558Z,101784.16
2022-09-05T13:39:22.922Z,101780.09
2022-09-05T13:41:59.556Z,101768.41
2022-09-05T13:44:30.039Z,101776.50
2022-09-05T13:47:28.419Z,101773.34
2022-09-05T13:50:09.505Z,101778.47
2022-09-05T13:52:44.134Z,101768.34
2022-09-05T13:56:00.532Z,101771.56
2022-09-05T13:58:56.850Z,101760.28
2022-09-05T14:02:25.774Z,101759.50
2022-09-05T14:05:20.818Z,101761.66
2022-09-05T14:08:17.876Z,101755.81
2022-09-05T14:10:51.339Z,101756.88
2022-09-05T14:14:11.239Z,101757.25
2022-09-05T14:16:54.304Z,101755.53
2022-09-05T14:19:43.267Z,101748.50
2022-09-05T14:22:22.190Z,101736.53
2022-09-05T14:24:58.327Z,101739.59
2022-09-05T14:27:32.094Z,101738.72
2022-09-05T14:30:39.996Z,101742.41
2022-09-05T14:37:35.910Z,101731.88
2022-09-05T14:37:49.417Z,101737.91
2022-09-05T14:40:26.497Z,101724.06
2022-09-05T14:43:07.404Z,101732.88
2022-09-05T14:46:04.731Z,101720.66
2022-09-05T14:48:46.323Z,101721.25
2022-09-05T14:51:30.754Z,101721.91
2022-09-05T14:54:11.966Z,101721.63
2022-09-05T14:58:39.900Z,101716.88
2022-09-05T15:02:49.130Z,101717.84
2022-09-05T15:03:00.721Z,101713.56
2022-09-05T15:05:30.821Z,101714.41
2022-09-05T15:08:18.292Z,101718.44
2022-09-05T15:12:14.755Z,101711.59
2022-09-05T15:14:03.814Z,101704.28
2022-09-05T15:16:35.581Z,101710.84
2022-09-05T15:19:03.248Z,101700.63
2022-09-05T15:21:38.274Z,101706.97
2022-09-05T15:24:22.927Z,101702.72
2022-09-05T15:27:01.855Z,101699.44
2022-09-05T15:29:34.036Z,101689.75
2022-09-05T15:32:21.377Z,101699.97
2022-09-05T15:34:50.830Z,101692.34
2022-09-05T15:37:24.485Z,101692.84
2022-09-05T15:40:23.160Z,101686.19
2022-09-05T15:43:00.581Z,101678.78
2022-09-05T15:45:32.189Z,101676.91
2022-09-05T15:48:26.543Z,101682.13
2022-09-05T15:51:08.738Z,101675.72
2022-09-05T15:53:38.903Z,101677.50
2022-09-05T15:56:12.416Z,101685.44
2022-09-05T15:58:54.084Z,101670.84
2022-09-05T16:01:58.902Z,101674.09
2022-09-05T16:07:53.171Z,101678.50
2022-09-05T16:10:33.926Z,101662.13
2022-09-05T16:10:39.979Z,101660.31
2022-09-05T16:13:17.351Z,101658.81
2022-09-05T16:20:51.063Z,101654.03
2022-09-05T16:23:14.997Z,101649.16
2022-09-05T16:23:36.831Z,101649.72
2022-09-05T16:24:38.598Z,101643.50
2022-09-05T16:27:43.913Z,101647.56
2022-09-05T16:30:15.797Z,101657.38
2022-09-05T16:32:51.349Z,101652.66
2022-09-05T16:35:24.915Z,101646.38
2022-09-05T16:38:03.985Z,101648.31
2022-09-05T16:40:43.610Z,101636.75
2022-09-05T16:43:16.801Z,101640.25
2022-09-05T16:46:05.751Z,101641.59
2022-09-05T16:49:09.812Z,101636.47
2022-09-05T16:51:44.555Z,101643.50
2022-09-05T16:54:33.439Z,101645.78
2022-09-05T16:57:02.686Z,101640.44
2022-09-05T16:59:33.105Z,101634.53
2022-09-05T17:02:08.282Z,101633.16
2022-09-05T17:05:04.031Z,101641.38
2022-09-05T17:07:41.952Z,101629.06
2022-09-05T17:10:13.128Z,101631.06
2022-09-05T17:12:42.233Z,101630.78
2022-09-05T17:15:18.048Z,101629.66
2022-09-05T17:18:19.065Z,101622.44
2022-09-05T17:20:37.100Z,101618.81
2022-09-05T17:29:15.057Z,101622.78
2022-09-05T17:29:28.934Z,101618.16
2022-09-05T17:30:23.605Z,101611.56
2022-09-05T17:32:01.965Z,101615.19
2022-09-05T17:34:53.706Z,101610.44
2022-09-05T17:37:35.502Z,101615.94
2022-09-05T17:40:20.643Z,101617.44
2022-09-05T17:42:52.704Z,101620.69
2022-09-05T17:45:58.186Z,101616.53
2022-09-05T17:48:59.992Z,101618.94
2022-09-05T17:51:35.117Z,101620.66
2022-09-05T17:54:04.799Z,101624.09
2022-09-05T17:56:39.678Z,101624.28
2022-09-05T17:59:19.311Z,101611.91
2022-09-05T18:02:05.648Z,101611.31
2022-09-05T18:05:00.178Z,101617.00
2022-09-05T18:07:28.541Z,101614.66
2022-09-05T18:10:15.324Z,101620.53
2022-09-05T18:15:38.838Z,101616.09
2022-09-05T18:21:21.287Z,101613.34
2022-09-05T18:23:59.489Z,101619.03
2022-09-05T18:26:28.969Z,101611.41
2022-09-05T18:29:05.905Z,101622.41
2022-09-05T18:31:42.532Z,101618.19
2022-09-05T18:34:14.233Z,101610.47
2022-09-05T18:36:43.833Z,101615.06
2022-09-05T18:39:26.607Z,101621.41
2022-09-05T18:42:25.881Z,101620.88
2022-09-05T18:45:16.063Z,101615.91
2022-09-05T18:47:52.621Z,101625.00
2022-09-05T18:50:28.067Z,101621.72
2022-09-05T18:53:09.960Z,101631.00
2022-09-05T18:56:14.249Z,101637.44
2022-09-05T18:59:13.045Z,101653.78
2022-09-05T19:02:05.593Z,101672.47
2022-09-05T19:04:39.598Z,101674.91
2022-09-05T19:07:13.814Z,101690.94
2022-09-05T19:10:34.937Z,101690.63
2022-09-05T19:13:03.092Z,101697.41
2022-09-05T19:15:37.478Z,101704.59
2022-09-05T19:18:26.583Z,101720.03
2022-09-05T19:21:16.747Z,101719.72
2022-09-05T19:23:58.423Z,101719.41
2022-09-05T19:26:26.540Z,101720.66
2022-09-05T19:36:51.126Z,101731.22
2022-09-05T19:36:53.189Z,101722.34
2022-09-05T19:37:12.858Z,101745.50
2022-09-05T19:37:46.504Z,101746.81
2022-09-05T19:47:27.220Z,101756.56
2022-09-05T19:47:38.914Z,101759.66
2022-09-05T19:47:50.842Z,101773.09
2022-09-05T19:49:14.199Z,101771.84
2022-09-05T19:51:42.778Z,101765.22
2022-09-05T19:54:26.407Z,101766.63
2022-09-05T19:57:00.295Z,101771.41
2022-09-05T19:59:35.069Z,101764.78
2022-09-05T20:02:03.775Z,101761.31
2022-09-05T20:04:36.823Z,101754.59
2022-09-05T20:07:31.009Z,101745.31
2022-09-05T20:10:01.579Z,101747.34
2022-09-05T20:12:30.389Z,101739.78
2022-09-05T20:15:18.099Z,101741.00
2022-09-05T20:17:46.118Z,101738.34
2022-09-05T20:20:34.864Z,101747.63
2022-09-05T20:23:06.029Z,101744.47
2022-09-05T20:25:39.652Z,101730.66
2022-09-05T20:28:17.822Z,101757.69
2022-09-05T20:30:57.089Z,101765.41
2022-09-05T20:33:39.978Z,101769.47
2022-09-05T20:43:10.770Z,101776.00
2022-09-05T20:43:29.306Z,101764.78
2022-09-05T20:43:36.697Z,101751.06
2022-09-05T20:45:46.117Z,101754.03
2022-09-05T20:54:07.567Z,101757.97
2022-09-05T20:54:27.561Z,101753.66
2022-09-05T20:54:31.784Z,101738.19
2022-09-05T20:56:56.679Z,101760.16
2022-09-05T20:59:33.458Z,101772.50
2022-09-05T21:02:04.677Z,101776.91
2022-09-05T21:04:35.107Z,101779.78
2022-09-05T21:07:35.635Z,101793.06
2022-09-05T21:10:07.976Z,101802.03
2022-09-05T21:12:57.859Z,101792.72
2022-09-05T21:15:52.862Z,101795.56
2022-09-05T21:18:23.127Z,101794.22
2022-09-05T21:21:02.229Z,101793.34
2022-09-05T21:23:38.646Z,101796.06
2022-09-05T21:26:22.025Z,101800.53
2022-09-05T21:29:08.750Z,101808.50
2022-09-05T21:31:48.291Z,101796.13
2022-09-05T21:34:26.302Z,101802.56
2022-09-05T21:37:01.214Z,101802.56
2022-09-05T21:39:39.952Z,101792.16
2022-09-05T21:42:21.307Z,101776.84
2022-09-05T21:47:48.113Z,101763.84
2022-09-05T21:47:53.793Z,101753.47
2022-09-05T21:50:31.445Z,101745.09
2022-09-05T21:53:43.223Z,101746.94
2022-09-05T21:59:26.137Z,101737.25
2022-09-05T21:59:32.838Z,101753.19
2022-09-05T22:01:51.281Z,101762.03
2022-09-05T22:04:16.640Z,101750.06
2022-09-05T22:06:48.523Z,101738.06
2022-09-05T22:09:20.387Z,101740.00
2022-09-05T22:11:50.424Z,101727.84
2022-09-05T22:14:19.685Z,101713.06
2022-09-05T22:16:50.360Z,101710.38
2022-09-05T22:19:26.124Z,101696.38
2022-09-05T22:22:04.032Z,101682.25
2022-09-05T22:24:33.512Z,101684.91
2022-09-05T22:27:12.083Z,101694.63
2022-09-05T22:29:40.853Z,101702.56
2022-09-05T22:32:08.750Z,101709.72
2022-09-05T22:34:36.274Z,101713.44
2022-09-05T22:37:03.770Z,101708.09
2022-09-05T22:39:37.657Z,101705.41
2022-09-05T22:42:10.805Z,101688.25
2022-09-05T22:44:42.609Z,101683.06
2022-09-05T22:47:11.337Z,101678.75
2022-09-05T22:49:38.849Z,101652.84
2022-09-05T22:52:10.122Z,101662.63
2022-09-05T22:54:37.784Z,101666.19
2022-09-05T22:57:05.802Z,101655.88
2022-09-05T22:59:33.304Z,101652.34
2022-09-05T23:02:00.895Z,101667.41
2022-09-05T23:04:28.966Z,101648.00
2022-09-05T23:06:56.534Z,101655.13
2022-09-05T23:09:24.045Z,101652.34
2022-09-05T23:11:51.521Z,101649.72
2022-09-05T23:14:19.023Z,101645.28
2022-09-05T23:16:46.544Z,101649.59
2022-09-05T23:19:14.074Z,101651.41
2022-09-05T23:21:41.543Z,101671.53
2022-09-05T23:24:09.047Z,101659.19
2022-09-05T23:26:36.643Z,101646.78
2022-09-05T23:29:04.198Z,101625.88
2022-09-05T23:31:31.726Z,101634.50
2022-09-05T23:33:59.273Z,101618.97
2022-09-05T23:36:26.841Z,101636.47
2022-09-05T23:38:54.385Z,101627.59
2022-09-05T23:41:21.884Z,101622.31
2022-09-05T23:43:49.414Z,101610.22
2022-09-05T23:46:17.153Z,101613.69
2022-09-05T23:48:44.683Z,101620.84
2022-09-05T23:51:13.817Z,101613.78
2022-09-05T23:53:42.073Z,101617.44
2022-09-05T23:56:11.515Z,101605.16
2022-09-05T23:58:39.688Z,101594.00
